Time,TemperatureF,DewpointF,PressureIn,WindDirection,WindDirectionDegrees,WindSpeedMPH,WindSpeedGustMPH,Humidity,HourlyPrecipIn,Conditions,Clouds,dailyrainin,SoftwareType,DateUTC
2013-09-14 00:01:00,38.5,35.4,30.14,NW,315,0.0,15.9,89,0.00,,,0.00,WUHU21636XXSP,2013-09-14 04:01:00,
2013-09-14 00:06:00,38.3,35.2,30.15,NW,315,0.0,15.9,89,0.00,,,0.00,WUHU21636XXSP,2013-09-14 04:06:00,
2013-09-14 00:11:00,38.3,35.2,30.15,NW,315,0.0,0.0,89,0.00,,,0.00,WUHU21636XXSP,2013-09-14 04:11:00,
2013-09-14 00:16:00,38.5,35.4,30.14,NW,315,0.0,0.0,89,0.00,,,0.00,WUHU21636XXSP,2013-09-14 04:16:00,
2013-09-14 00:21:00,38.8,35.8,30.14,NW,315,0.0,0.0,89,0.00,,,0.00,WUHU21636XXSP,2013-09-14 04:21:00,
2013-09-14 00:26:00,38.8,35.8,30.14,NW,315,0.0,0.0,89,0.00,,,0.00,WUHU21636XXSP,2013-09-14 04:26:00,
2013-09-14 00:31:00,38.5,35.4,30.14,NW,315,0.0,0.0,89,0.00,,,0.00,WUHU21636XXSP,2013-09-14 04:31:00,
2013-09-14 00:36:00,38.1,35.1,30.14,NW,315,0.0,0.0,89,0.00,,,0.00,WUHU21636XXSP,2013-09-14 04:36:00,
2013-09-14 00:41:00,38.1,35.1,30.14,NW,315,0.0,0.0,90,0.00,,,0.00,WUHU21636XXSP,2013-09-14 04:41:00,
2013-09-14 00:46:00,38.1,35.1,30.14,NW,315,0.0,0.0,90,0.00,,,0.00,WUHU21636XXSP,2013-09-14 04:46:00,
2013-09-14 00:51:00,37.8,35.1,30.14,NW,315,0.0,0.0,90,0.00,,,0.00,WUHU21636XXSP,2013-09-14 04:51:00,
2013-09-14 00:56:00,37.8,35.1,30.14,NW,315,0.0,0.0,90,0.00,,,0.00,WUHU21636XXSP,2013-09-14 04:56:00,
2013-09-14 01:01:00,37.6,34.9,30.14,NW,315,0.0,0.0,90,0.00,,,0.00,WUHU21636XXSP,2013-09-14 05:01:00,
2013-09-14 01:06:00,37.6,34.9,30.14,NW,315,0.0,0.0,90,0.00,,,0.00,WUHU21636XXSP,2013-09-14 05:06:00,
2013-09-14 01:11:00,37.6,34.9,30.14,NW,315,0.0,0.0,90,0.00,,,0.00,WUHU21636XXSP,2013-09-14 05:11:00,
2013-09-14 01:16:00,37.8,35.1,30.14,NW,315,0.0,0.0,90,0.00,,,0.00,WUHU21636XXSP,2013-09-14 05:16:00,
2013-09-14 01:21:00,37.9,35.2,30.14,NW,315,0.0,0.0,90,0.00,,,0.00,WUHU21636XXSP,2013-09-14 05:21:00,
2013-09-14 01:26:00,37.8,35.1,30.14,NW,315,0.0,0.0,90,0.00,,,0.00,WUHU21636XXSP,2013-09-14 05:26:00,
2013-09-14 01:31:00,37.6,34.9,30.14,NW,315,0.0,0.0,90,0.00,,,0.00,WUHU21636XXSP,2013-09-14 05:31:00,
2013-09-14 01:36:00,37.6,34.9,30.14,NW,315,0.0,0.0,90,0.00,,,0.00,WUHU21636XXSP,2013-09-14 05:36:00,
2013-09-14 01:41:00,37.2,34.5,30.14,NW,315,0.0,0.0,90,0.00,,,0.00,WUHU21636XXSP,2013-09-14 05:41:00,
2013-09-14 01:46:00,36.9,34.2,30.14,NW,315,0.0,0.0,90,0.00,,,0.00,WUHU21636XXSP,2013-09-14 05:46:00,
2013-09-14 01:51:00,36.7,34.0,30.13,NW,315,0.0,0.0,90,0.00,,,0.00,WUHU21636XXSP,2013-09-14 05:51:00,
2013-09-14 01:56:00,36.7,34.0,30.13,NW,315,0.0,0.0,90,0.00,,,0.00,WUHU21636XXSP,2013-09-14 05:56:00,
2013-09-14 02:01:00,36.7,34.0,30.13,NW,315,0.0,0.0,90,0.00,,,0.00,WUHU21636XXSP,2013-09-14 06:01:00,
2013-09-14 02:06:00,36.3,33.6,30.14,NW,315,0.0,0.0,90,0.00,,,0.00,WUHU21636XXSP,2013-09-14 06:06:00,
2013-09-14 02:11:00,36.3,33.6,30.14,NW,315,0.0,0.0,90,0.00,,,0.00,WUHU21636XXSP,2013-09-14 06:11:00,
2013-09-14 02:16:00,36.5,33.8,30.14,NW,315,0.0,0.0,90,0.00,,,0.00,WUHU21636XXSP,2013-09-14 06:16:00,
2013-09-14 02:21:00,36.5,33.8,30.14,NW,315,0.0,0.0,90,0.00,,,0.00,WUHU21636XXSP,2013-09-14 06:21:00,
2013-09-14 02:26:00,36.7,34.0,30.14,NW,315,0.0,0.0,90,0.00,,,0.00,WUHU21636XXSP,2013-09-14 06:26:00,
2013-09-14 02:31:00,36.7,34.0,30.14,NW,315,0.0,0.0,90,0.00,,,0.00,WUHU21636XXSP,2013-09-14 06:31:00,
2013-09-14 02:36:00,36.7,34.0,30.14,NW,315,0.0,0.0,91,0.00,,,0.00,WUHU21636XXSP,2013-09-14 06:36:00,
2013-09-14 02:41:00,36.7,34.0,30.14,NW,315,0.0,0.0,90,0.00,,,0.00,WUHU21636XXSP,2013-09-14 06:41:00,
2013-09-14 02:46:00,36.3,33.6,30.14,NW,315,0.0,0.0,90,0.00,,,0.00,WUHU21636XXSP,2013-09-14 06:46:00,
2013-09-14 02:51:00,36.1,33.4,30.14,NW,315,0.0,0.0,90,0.00,,,0.00,WUHU21636XXSP,2013-09-14 06:51:00,
2013-09-14 02:56:00,36.3,33.6,30.14,NW,315,0.0,0.0,90,0.00,,,0.00,WUHU21636XXSP,2013-09-14 06:56:00,
2013-09-14 03:02:00,36.3,33.6,30.14,NW,315,0.0,0.0,90,0.00,,,0.00,WUHU21636XXSP,2013-09-14 07:02:00,
2013-09-14 03:07:00,36.3,33.6,30.14,NW,315,0.0,0.0,90,0.00,,,0.00,WUHU21636XXSP,2013-09-14 07:07:00,
2013-09-14 03:12:00,36.5,33.8,30.14,NW,315,0.0,0.0,90,0.00,,,0.00,WUHU21636XXSP,2013-09-14 07:12:00,
2013-09-14 03:17:00,36.5,33.8,30.14,NW,315,0.0,0.0,90,0.00,,,0.00,WUHU21636XXSP,2013-09-14 07:17:00,
2013-09-14 03:22:00,36.3,33.6,30.14,NW,315,0.0,0.0,90,0.00,,,0.00,WUHU21636XXSP,2013-09-14 07:22:00,
2013-09-14 03:27:00,36.1,33.4,30.14,NW,315,0.0,0.0,90,0.00,,,0.00,WUHU21636XXSP,2013-09-14 07:27:00,
2013-09-14 03:32:00,36.1,33.4,30.14,NW,315,0.0,0.0,90,0.00,,,0.00,WUHU21636XXSP,2013-09-14 07:32:00,
2013-09-14 03:37:00,36.1,33.4,30.14,NW,315,0.0,0.0,90,0.00,,,0.00,WUHU21636XXSP,2013-09-14 07:37:00,
2013-09-14 03:42:00,36.1,33.4,30.14,NW,315,0.0,0.0,90,0.00,,,0.00,WUHU21636XXSP,2013-09-14 07:42:00,
2013-09-14 03:47:00,36.0,33.3,30.14,NW,315,0.0,0.0,90,0.00,,,0.00,WUHU21636XXSP,2013-09-14 07:47:00,
2013-09-14 03:52:00,35.8,33.1,30.14,NW,315,0.0,0.0,90,0.00,,,0.00,WUHU21636XXSP,2013-09-14 07:52:00,
2013-09-14 03:57:00,35.6,32.9,30.14,NW,315,0.0,0.0,90,0.00,,,0.00,WUHU21636XXSP,2013-09-14 07:57:00,
2013-09-14 04:02:00,35.8,33.1,30.14,NW,315,0.0,0.0,90,0.00,,,0.00,WUHU21636XXSP,2013-09-14 08:02:00,
2013-09-14 04:07:00,35.4,32.7,30.14,NW,315,0.0,0.0,90,0.00,,,0.00,WUHU21636XXSP,2013-09-14 08:07:00,
2013-09-14 04:12:00,35.2,32.5,30.14,NW,315,0.0,0.0,90,0.00,,,0.00,WUHU21636XXSP,2013-09-14 08:12:00,
2013-09-14 04:17:00,35.2,32.5,30.14,NW,315,0.0,0.0,90,0.00,,,0.00,WUHU21636XXSP,2013-09-14 08:17:00,
2013-09-14 04:22:00,35.4,32.7,30.14,NW,315,0.0,0.0,90,0.00,,,0.00,WUHU21636XXSP,2013-09-14 08:22:00,
2013-09-14 04:27:00,35.8,33.1,30.14,NW,315,0.0,0.0,90,0.00,,,0.00,WUHU21636XXSP,2013-09-14 08:27:00,
2013-09-14 04:32:00,36.1,33.4,30.14,NW,315,0.0,0.0,90,0.00,,,0.00,WUHU21636XXSP,2013-09-14 08:32:00,
2013-09-14 04:37:00,36.3,33.6,30.14,NW,315,0.0,0.0,90,0.00,,,0.00,WUHU21636XXSP,2013-09-14 08:37:00,
2013-09-14 04:42:00,36.3,33.6,30.14,NW,315,0.0,0.0,90,0.00,,,0.00,WUHU21636XXSP,2013-09-14 08:42:00,
2013-09-14 04:47:00,36.3,33.6,30.14,NW,315,0.0,0.0,90,0.00,,,0.00,WUHU21636XXSP,2013-09-14 08:47:00,
2013-09-14 04:52:00,36.3,33.6,30.14,NW,315,0.0,0.0,90,0.00,,,0.00,WUHU21636XXSP,2013-09-14 08:52:00,
2013-09-14 04:57:00,36.3,33.6,30.14,NW,315,0.0,0.0,90,0.00,,,0.00,WUHU21636XXSP,2013-09-14 08:57:00,
2013-09-14 05:02:00,36.3,33.6,30.14,NW,315,0.0,0.0,90,0.00,,,0.00,WUHU21636XXSP,2013-09-14 09:02:00,
2013-09-14 05:07:00,36.3,33.6,30.14,NW,315,0.0,0.0,90,0.00,,,0.00,WUHU21636XXSP,2013-09-14 09:07:00,
2013-09-14 05:12:00,36.3,33.6,30.14,NW,315,0.0,0.0,90,0.00,,,0.00,WUHU21636XXSP,2013-09-14 09:12:00,
2013-09-14 05:17:00,36.1,33.4,30.14,NW,315,0.0,0.0,90,0.00,,,0.00,WUHU21636XXSP,2013-09-14 09:17:00,
2013-09-14 05:22:00,36.1,33.4,30.14,NW,315,0.0,0.0,90,0.00,,,0.00,WUHU21636XXSP,2013-09-14 09:22:00,
2013-09-14 05:27:00,36.1,33.4,30.14,NW,315,0.0,0.0,91,0.00,,,0.00,WUHU21636XXSP,2013-09-14 09:27:00,
2013-09-14 05:32:00,35.8,33.3,30.14,NW,315,0.0,0.0,91,0.00,,,0.00,WUHU21636XXSP,2013-09-14 09:32:00,
2013-09-14 05:37:00,35.4,32.9,30.14,NW,315,0.0,0.0,91,0.00,,,0.00,WUHU21636XXSP,2013-09-14 09:37:00,
2013-09-14 05:42:00,35.2,32.7,30.14,NW,315,0.0,0.0,91,0.00,,,0.00,WUHU21636XXSP,2013-09-14 09:42:00,
2013-09-14 05:47:00,35.2,32.7,30.14,NW,315,0.0,0.0,91,0.00,,,0.00,WUHU21636XXSP,2013-09-14 09:47:00,
2013-09-14 05:52:00,35.2,32.7,30.14,NW,315,0.0,0.0,91,0.00,,,0.00,WUHU21636XXSP,2013-09-14 09:52:00,
2013-09-14 05:57:00,34.9,32.4,30.14,NW,315,0.0,0.0,91,0.00,,,0.00,WUHU21636XXSP,2013-09-14 09:57:00,
2013-09-14 06:02:00,34.9,32.4,30.14,NW,315,0.0,0.0,91,0.00,,,0.00,WUHU21636XXSP,2013-09-14 10:02:00,
2013-09-14 06:07:00,35.2,32.7,30.14,NW,315,0.0,0.0,91,0.00,,,0.00,WUHU21636XXSP,2013-09-14 10:07:00,
2013-09-14 06:12:00,35.2,32.7,30.14,NW,315,0.0,0.0,91,0.00,,,0.00,WUHU21636XXSP,2013-09-14 10:12:00,
2013-09-14 06:17:00,35.2,32.7,30.14,NW,315,0.0,0.0,91,0.00,,,0.00,WUHU21636XXSP,2013-09-14 10:17:00,
2013-09-14 06:22:00,34.9,32.4,30.14,NW,315,0.0,0.0,91,0.00,,,0.00,WUHU21636XXSP,2013-09-14 10:22:00,
2013-09-14 06:27:00,34.7,32.2,30.14,NW,315,0.0,0.0,91,0.00,,,0.00,WUHU21636XXSP,2013-09-14 10:27:00,
2013-09-14 06:32:00,34.7,32.2,30.14,NW,315,0.0,0.0,91,0.00,,,0.00,WUHU21636XXSP,2013-09-14 10:32:00,
2013-09-14 06:37:00,35.2,32.7,30.14,NW,315,0.0,0.0,91,0.00,,,0.00,WUHU21636XXSP,2013-09-14 10:37:00,
2013-09-14 06:42:00,35.4,32.9,30.14,NW,315,0.0,0.0,91,0.00,,,0.00,WUHU21636XXSP,2013-09-14 10:42:00,
2013-09-14 06:47:00,35.6,33.1,30.14,NW,315,0.0,0.0,91,0.00,,,0.00,WUHU21636XXSP,2013-09-14 10:47:00,
2013-09-14 06:52:00,35.8,33.3,30.14,NW,315,0.0,0.0,91,0.00,,,0.00,WUHU21636XXSP,2013-09-14 10:52:00,
2013-09-14 06:57:00,35.8,33.3,30.14,NW,315,0.0,0.0,91,0.00,,,0.00,WUHU21636XXSP,2013-09-14 10:57:00,
2013-09-14 07:02:00,35.8,33.3,30.15,NW,315,0.0,0.0,91,0.00,,,0.00,WUHU21636XXSP,2013-09-14 11:02:00,
2013-09-14 07:07:00,35.8,33.3,30.15,NW,315,0.0,0.0,91,0.00,,,0.00,WUHU21636XXSP,2013-09-14 11:07:00,
2013-09-14 07:12:00,36.0,33.4,30.15,NW,315,0.0,0.0,91,0.00,,,0.00,WUHU21636XXSP,2013-09-14 11:12:00,
2013-09-14 07:17:00,36.0,33.4,30.15,NW,315,0.0,0.0,91,0.00,,,0.00,WUHU21636XXSP,2013-09-14 11:17:00,
2013-09-14 07:22:00,36.1,33.6,30.15,NW,315,0.0,0.0,91,0.00,,,0.00,WUHU21636XXSP,2013-09-14 11:22:00,
2013-09-14 07:27:00,36.1,33.6,30.15,NW,315,0.0,0.0,91,0.00,,,0.00,WUHU21636XXSP,2013-09-14 11:27:00,
2013-09-14 07:32:00,36.3,33.8,30.15,NW,315,0.0,0.0,91,0.00,,,0.00,WUHU21636XXSP,2013-09-14 11:32:00,
2013-09-14 07:37:00,36.5,34.0,30.15,NW,315,0.0,0.0,91,0.00,,,0.00,WUHU21636XXSP,2013-09-14 11:37:00,
2013-09-14 07:42:00,36.7,34.2,30.15,NW,315,0.0,0.0,91,0.00,,,0.00,WUHU21636XXSP,2013-09-14 11:42:00,
2013-09-14 07:47:00,37.0,34.2,30.15,NW,315,0.0,0.0,91,0.00,,,0.00,WUHU21636XXSP,2013-09-14 11:47:00,
2013-09-14 07:52:00,36.9,34.3,30.15,NW,315,0.0,0.0,91,0.00,,,0.00,WUHU21636XXSP,2013-09-14 11:52:00,
2013-09-14 07:57:00,37.0,34.5,30.15,NW,315,0.0,0.0,91,0.00,,,0.00,WUHU21636XXSP,2013-09-14 11:57:00,
2013-09-14 08:02:00,37.0,34.5,30.16,NW,315,0.0,0.0,91,0.00,,,0.00,WUHU21636XXSP,2013-09-14 12:02:00,
2013-09-14 08:07:00,37.2,34.7,30.15,NW,315,0.0,0.0,91,0.00,,,0.00,WUHU21636XXSP,2013-09-14 12:07:00,
2013-09-14 08:12:00,37.6,35.1,30.15,NW,315,0.0,0.0,91,0.00,,,0.00,WUHU21636XXSP,2013-09-14 12:12:00,
2013-09-14 08:17:00,38.5,36.0,30.15,NW,315,0.0,0.0,91,0.00,,,0.00,WUHU21636XXSP,2013-09-14 12:17:00,
2013-09-14 08:22:00,38.8,36.5,30.15,NW,315,0.0,0.0,91,0.00,,,0.00,WUHU21636XXSP,2013-09-14 12:22:00,
2013-09-14 08:27:00,39.6,37.0,30.15,NW,315,0.0,1.1,91,0.00,,,0.00,WUHU21636XXSP,2013-09-14 12:27:00,
2013-09-14 08:32:00,40.1,37.6,30.16,NW,315,0.0,1.1,91,0.00,,,0.00,WUHU21636XXSP,2013-09-14 12:32:00,
2013-09-14 08:37:00,41.5,39.0,30.16,NW,315,0.0,0.0,91,0.00,,,0.00,WUHU21636XXSP,2013-09-14 12:37:00,
2013-09-14 08:42:00,42.1,39.6,30.16,NW,315,0.0,0.0,91,0.00,,,0.00,WUHU21636XXSP,2013-09-14 12:42:00,
2013-09-14 08:47:00,43.3,40.8,30.15,NW,315,0.0,0.0,91,0.00,,,0.00,WUHU21636XXSP,2013-09-14 12:47:00,
2013-09-14 08:52:00,44.4,41.9,30.16,NW,315,0.0,0.0,91,0.00,,,0.00,WUHU21636XXSP,2013-09-14 12:52:00,
2013-09-14 08:57:00,45.3,42.8,30.15,SW,225,0.0,0.0,91,0.00,,,0.00,WUHU21636XXSP,2013-09-14 12:57:00,
2013-09-14 09:02:00,45.9,43.2,30.15,SSE,157,4.4,4.4,90,0.00,,,0.00,WUHU21636XXSP,2013-09-14 13:02:00,
2013-09-14 09:07:00,46.2,43.7,30.16,SSE,157,0.0,4.4,91,0.00,,,0.00,WUHU21636XXSP,2013-09-14 13:07:00,
2013-09-14 09:12:00,46.6,44.1,30.16,SSE,157,2.6,4.4,91,0.00,,,0.00,WUHU21636XXSP,2013-09-14 13:12:00,
2013-09-14 09:17:00,47.5,45.0,30.15,South,180,0.2,2.6,91,0.00,,,0.00,WUHU21636XXSP,2013-09-14 13:17:00,
2013-09-14 09:22:00,48.4,44.2,30.16,SSW,202,1.3,4.0,86,0.00,,,0.00,WUHU21636XXSP,2013-09-14 13:22:00,
2013-09-14 09:27:00,49.1,43.3,30.16,South,180,0.0,4.0,81,0.00,,,0.00,WUHU21636XXSP,2013-09-14 13:27:00,
2013-09-14 09:32:00,50.4,44.6,30.16,SSW,202,0.0,4.0,81,0.00,,,0.00,WUHU21636XXSP,2013-09-14 13:32:00,
2013-09-14 09:37:00,50.9,43.2,30.15,SSE,157,4.2,4.2,75,0.00,,,0.00,WUHU21636XXSP,2013-09-14 13:37:00,
2013-09-14 09:42:00,51.4,43.7,30.15,WSW,247,1.3,4.2,75,0.00,,,0.00,WUHU21636XXSP,2013-09-14 13:42:00,
2013-09-14 09:47:00,52.0,44.6,30.15,SSW,202,3.3,4.2,76,0.00,,,0.00,WUHU21636XXSP,2013-09-14 13:47:00,
2013-09-14 09:52:00,52.5,44.8,30.16,SSE,157,1.3,6.4,75,0.00,,,0.00,WUHU21636XXSP,2013-09-14 13:52:00,
2013-09-14 09:57:00,53.2,44.8,30.16,South,180,0.0,14.3,73,0.00,,,0.00,WUHU21636XXSP,2013-09-14 13:57:00,
2013-09-14 10:02:00,54.0,44.6,30.16,South,180,2.4,14.3,71,0.00,,,0.00,WUHU21636XXSP,2013-09-14 14:02:00,
2013-09-14 10:07:00,54.3,45.0,30.16,WSW,247,2.9,2.9,71,0.00,,,0.00,WUHU21636XXSP,2013-09-14 14:07:00,
2013-09-14 10:12:00,55.0,45.0,30.15,WSW,247,3.3,7.3,69,0.00,,,0.00,WUHU21636XXSP,2013-09-14 14:12:00,
2013-09-14 10:17:00,55.6,45.9,30.15,West,270,2.0,7.3,70,0.00,,,0.00,WUHU21636XXSP,2013-09-14 14:17:00,
2013-09-14 10:22:00,56.5,46.4,30.16,West,270,0.0,3.3,69,0.00,,,0.00,WUHU21636XXSP,2013-09-14 14:22:00,
2013-09-14 10:27:00,56.5,46.4,30.16,West,270,0.0,2.0,69,0.00,,,0.00,WUHU21636XXSP,2013-09-14 14:27:00,
2013-09-14 10:32:00,56.1,45.1,30.15,SW,225,3.1,14.7,67,0.00,,,0.00,WUHU21636XXSP,2013-09-14 14:32:00,
2013-09-14 10:37:00,55.9,45.9,30.15,South,180,1.1,14.7,70,0.00,,,0.00,WUHU21636XXSP,2013-09-14 14:37:00,
2013-09-14 10:42:00,57.0,46.8,30.15,SSE,157,2.4,9.1,68,0.00,,,0.00,WUHU21636XXSP,2013-09-14 14:42:00,
2013-09-14 10:47:00,58.1,47.5,30.15,SE,135,1.7,9.1,68,0.00,,,0.00,WUHU21636XXSP,2013-09-14 14:47:00,
2013-09-14 10:52:00,58.1,46.8,30.15,South,180,2.9,3.1,66,0.00,,,0.00,WUHU21636XXSP,2013-09-14 14:52:00,
2013-09-14 10:57:00,58.1,46.8,30.14,South,180,1.7,3.1,68,0.00,,,0.00,WUHU21636XXSP,2013-09-14 14:57:00,
2013-09-14 11:02:00,59.0,47.5,30.14,SSE,157,2.6,10.0,66,0.00,,,0.00,WUHU21636XXSP,2013-09-14 15:02:00,
2013-09-14 11:07:00,59.9,48.0,30.14,South,180,2.0,10.0,65,0.00,,,0.00,WUHU21636XXSP,2013-09-14 15:07:00,
2013-09-14 11:12:00,60.4,48.9,30.14,West,270,0.8,2.6,66,0.00,,,0.00,WUHU21636XXSP,2013-09-14 15:12:00,
2013-09-14 11:17:00,60.8,48.6,30.14,West,270,0.0,6.2,64,0.00,,,0.00,WUHU21636XXSP,2013-09-14 15:17:00,
2013-09-14 11:22:00,61.2,49.6,30.14,West,270,0.0,6.2,66,0.00,,,0.00,WUHU21636XXSP,2013-09-14 15:22:00,
2013-09-14 11:27:00,61.3,48.6,30.14,South,180,8.2,9.6,63,0.00,,,0.00,WUHU21636XXSP,2013-09-14 15:27:00,
2013-09-14 11:32:00,61.2,49.3,30.13,WNW,292,0.0,10.7,65,0.00,,,0.00,WUHU21636XXSP,2013-09-14 15:32:00,
2013-09-14 11:37:00,61.9,50.7,30.13,West,270,0.0,10.7,66,0.00,,,0.00,WUHU21636XXSP,2013-09-14 15:37:00,
2013-09-14 11:42:00,63.1,50.2,30.13,West,270,2.9,2.9,63,0.00,,,0.00,WUHU21636XXSP,2013-09-14 15:42:00,
2013-09-14 11:47:00,62.8,49.5,30.13,NW,315,4.4,4.4,62,0.00,,,0.00,WUHU21636XXSP,2013-09-14 15:47:00,
2013-09-14 11:52:00,62.6,50.9,30.13,WNW,292,3.1,12.3,66,0.00,,,0.00,WUHU21636XXSP,2013-09-14 15:52:00,
2013-09-14 11:57:00,62.8,49.8,30.13,WSW,247,0.0,12.3,63,0.00,,,0.00,WUHU21636XXSP,2013-09-14 15:57:00,
2013-09-14 12:02:00,61.7,49.3,30.13,WSW,247,3.1,3.5,64,0.00,,,0.00,WUHU21636XXSP,2013-09-14 16:02:00,
2013-09-14 12:07:00,61.5,50.4,30.13,NW,315,6.2,19.9,67,0.00,,,0.00,WUHU21636XXSP,2013-09-14 16:07:00,
2013-09-14 12:12:00,62.2,50.2,30.13,WNW,292,3.5,19.9,65,0.00,,,0.00,WUHU21636XXSP,2013-09-14 16:12:00,
2013-09-14 12:17:00,63.1,50.7,30.12,NW,315,6.4,7.6,64,0.00,,,0.00,WUHU21636XXSP,2013-09-14 16:17:00,
2013-09-14 12:22:00,64.0,51.3,30.12,NW,315,7.6,8.2,63,0.00,,,0.00,WUHU21636XXSP,2013-09-14 16:22:00,
2013-09-14 12:27:00,63.5,50.5,30.12,WNW,292,2.0,8.9,63,0.00,,,0.00,WUHU21636XXSP,2013-09-14 16:27:00,
2013-09-14 12:32:00,63.3,50.4,30.12,West,270,1.3,8.9,64,0.00,,,0.00,WUHU21636XXSP,2013-09-14 16:32:00,
2013-09-14 12:37:00,63.0,51.8,30.11,WNW,292,0.0,8.6,67,0.00,,,0.00,WUHU21636XXSP,2013-09-14 16:37:00,
2013-09-14 12:42:00,64.2,51.6,30.11,SSW,202,1.7,7.6,64,0.00,,,0.00,WUHU21636XXSP,2013-09-14 16:42:00,
2013-09-14 12:47:00,63.1,50.2,30.12,South,180,2.6,6.9,63,0.00,,,0.00,WUHU21636XXSP,2013-09-14 16:47:00,
2013-09-14 12:52:00,63.5,50.5,30.11,WSW,247,2.0,6.9,63,0.00,,,0.00,WUHU21636XXSP,2013-09-14 16:52:00,
2013-09-14 12:57:00,64.2,51.6,30.11,WNW,292,1.3,6.9,64,0.00,,,0.00,WUHU21636XXSP,2013-09-14 16:57:00,
2013-09-14 13:02:00,65.3,52.3,30.11,West,270,2.0,8.9,63,0.00,,,0.00,WUHU21636XXSP,2013-09-14 17:02:00,
2013-09-14 13:07:00,65.3,51.4,30.11,WSW,247,3.1,8.9,61,0.00,,,0.00,WUHU21636XXSP,2013-09-14 17:07:00,
2013-09-14 13:12:00,65.5,51.6,30.11,South,180,1.3,3.1,60,0.00,,,0.00,WUHU21636XXSP,2013-09-14 17:12:00,
2013-09-14 13:17:00,65.1,50.9,30.10,NNW,337,7.8,8.5,60,0.00,,,0.00,WUHU21636XXSP,2013-09-14 17:17:00,
2013-09-14 13:22:00,64.0,50.2,30.10,West,270,2.9,10.0,61,0.00,,,0.00,WUHU21636XXSP,2013-09-14 17:22:00,
2013-09-14 13:27:00,63.0,50.0,30.10,WNW,292,3.5,11.1,63,0.00,,,0.00,WUHU21636XXSP,2013-09-14 17:27:00,
2013-09-14 13:32:00,63.9,51.6,30.10,WSW,247,0.0,11.1,63,0.00,,,0.00,WUHU21636XXSP,2013-09-14 17:32:00,
2013-09-14 13:37:00,64.9,50.7,30.09,SW,225,2.9,4.6,60,0.00,,,0.00,WUHU21636XXSP,2013-09-14 17:37:00,
2013-09-14 13:42:00,65.8,52.0,30.09,SSW,202,8.2,11.8,61,0.00,,,0.00,WUHU21636XXSP,2013-09-14 17:42:00,
2013-09-14 13:47:00,66.0,50.7,30.09,SSE,157,6.0,11.8,58,0.00,,,0.00,WUHU21636XXSP,2013-09-14 17:47:00,
2013-09-14 13:52:00,65.8,51.1,30.09,West,270,2.2,11.8,61,0.00,,,0.00,WUHU21636XXSP,2013-09-14 17:52:00,
2013-09-14 13:57:00,66.2,50.9,30.09,SW,225,1.5,8.5,58,0.00,,,0.00,WUHU21636XXSP,2013-09-14 17:57:00,
2013-09-14 14:02:00,65.3,50.0,30.08,West,270,1.7,10.5,59,0.00,,,0.00,WUHU21636XXSP,2013-09-14 18:02:00,
2013-09-14 14:07:00,64.8,50.5,30.08,West,270,2.2,10.5,60,0.00,,,0.00,WUHU21636XXSP,2013-09-14 18:07:00,
2013-09-14 14:12:00,64.8,50.9,30.08,West,270,2.4,7.3,61,0.00,,,0.00,WUHU21636XXSP,2013-09-14 18:12:00,
2013-09-14 14:17:00,64.2,50.4,30.08,NW,315,2.4,7.3,61,0.00,,,0.00,WUHU21636XXSP,2013-09-14 18:17:00,
2013-09-14 14:22:00,64.6,50.4,30.08,NW,315,7.1,12.3,60,0.00,,,0.00,WUHU21636XXSP,2013-09-14 18:22:00,
2013-09-14 14:27:00,64.0,50.5,30.08,WSW,247,2.6,16.3,62,0.00,,,0.00,WUHU21636XXSP,2013-09-14 18:27:00,
2013-09-14 14:32:00,64.4,50.9,30.07,WNW,292,3.3,16.3,62,0.00,,,0.00,WUHU21636XXSP,2013-09-14 18:32:00,
2013-09-14 14:37:00,64.2,51.1,30.07,WNW,292,0.0,8.9,63,0.00,,,0.00,WUHU21636XXSP,2013-09-14 18:37:00,
2013-09-14 14:42:00,64.8,50.7,30.07,West,270,2.0,4.2,60,0.00,,,0.00,WUHU21636XXSP,2013-09-14 18:42:00,
2013-09-14 14:47:00,64.8,50.9,30.06,WNW,292,5.1,10.9,61,0.00,,,0.00,WUHU21636XXSP,2013-09-14 18:47:00,
2013-09-14 14:52:00,64.0,50.5,30.06,NW,315,3.3,12.0,62,0.00,,,0.00,WUHU21636XXSP,2013-09-14 18:52:00,
2013-09-14 14:57:00,64.6,51.1,30.06,NW,315,0.6,12.3,62,0.00,,,0.00,WUHU21636XXSP,2013-09-14 18:57:00,
2013-09-14 15:02:00,64.9,51.1,30.06,NNW,337,4.9,12.3,61,0.00,,,0.00,WUHU21636XXSP,2013-09-14 19:02:00,
2013-09-14 15:07:00,65.3,51.1,30.06,NW,315,6.0,13.4,60,0.00,,,0.00,WUHU21636XXSP,2013-09-14 19:07:00,
2013-09-14 15:12:00,64.9,51.1,30.06,West,270,1.3,13.4,61,0.00,,,0.00,WUHU21636XXSP,2013-09-14 19:12:00,
2013-09-14 15:17:00,65.1,51.3,30.05,WSW,247,2.6,13.1,61,0.00,,,0.00,WUHU21636XXSP,2013-09-14 19:17:00,
2013-09-14 15:22:00,64.8,51.8,30.06,West,270,3.8,10.5,63,0.00,,,0.00,WUHU21636XXSP,2013-09-14 19:22:00,
2013-09-14 15:27:00,65.8,51.6,30.06,West,270,1.3,10.0,60,0.00,,,0.00,WUHU21636XXSP,2013-09-14 19:27:00,
2013-09-14 15:32:00,66.7,52.9,30.05,NW,315,2.6,10.0,61,0.00,,,0.00,WUHU21636XXSP,2013-09-14 19:32:00,
2013-09-14 15:37:00,67.1,52.2,30.05,SW,225,4.9,6.7,59,0.00,,,0.00,WUHU21636XXSP,2013-09-14 19:37:00,
2013-09-14 15:42:00,66.9,52.7,30.05,SW,225,4.4,4.9,60,0.00,,,0.00,WUHU21636XXSP,2013-09-14 19:42:00,
2013-09-14 15:47:00,67.6,51.8,30.05,WNW,292,2.0,4.9,57,0.00,,,0.00,WUHU21636XXSP,2013-09-14 19:47:00,
2013-09-14 15:52:00,67.5,52.5,30.05,West,270,2.6,6.4,59,0.00,,,0.00,WUHU21636XXSP,2013-09-14 19:52:00,
2013-09-14 15:57:00,66.7,52.0,30.05,West,270,3.8,6.4,59,0.00,,,0.00,WUHU21636XXSP,2013-09-14 19:57:00,
2013-09-14 16:02:00,66.7,52.0,30.05,West,270,2.9,4.2,58,0.00,,,0.00,WUHU21636XXSP,2013-09-14 20:02:00,
2013-09-14 16:07:00,66.0,50.7,30.05,WNW,292,2.4,3.8,58,0.00,,,0.00,WUHU21636XXSP,2013-09-14 20:07:00,
2013-09-14 16:12:00,65.1,50.9,30.04,WNW,292,5.1,16.1,60,0.00,,,0.00,WUHU21636XXSP,2013-09-14 20:12:00,
2013-09-14 16:17:00,65.1,51.3,30.05,WNW,292,2.6,16.1,60,0.00,,,0.00,WUHU21636XXSP,2013-09-14 20:17:00,
2013-09-14 16:22:00,65.8,51.6,30.04,NW,315,4.0,12.3,60,0.00,,,0.00,WUHU21636XXSP,2013-09-14 20:22:00,
2013-09-14 16:27:00,67.5,51.6,30.04,WSW,247,2.4,15.2,57,0.00,,,0.00,WUHU21636XXSP,2013-09-14 20:27:00,
2013-09-14 16:32:00,67.6,51.8,30.04,West,270,1.3,15.2,57,0.00,,,0.00,WUHU21636XXSP,2013-09-14 20:32:00,
2013-09-14 16:37:00,68.2,52.2,30.04,West,270,2.6,7.6,57,0.00,,,0.00,WUHU21636XXSP,2013-09-14 20:37:00,
2013-09-14 16:42:00,66.7,50.9,30.04,West,270,0.0,4.4,57,0.00,,,0.00,WUHU21636XXSP,2013-09-14 20:42:00,
2013-09-14 16:47:00,67.1,51.3,30.04,West,270,1.1,3.8,57,0.00,,,0.00,WUHU21636XXSP,2013-09-14 20:47:00,
2013-09-14 16:52:00,67.1,51.3,30.04,West,270,4.2,11.1,57,0.00,,,0.00,WUHU21636XXSP,2013-09-14 20:52:00,
2013-09-14 16:57:00,66.0,52.2,30.04,West,270,1.7,11.1,61,0.00,,,0.00,WUHU21636XXSP,2013-09-14 20:57:00,
2013-09-14 17:02:00,66.9,52.0,30.04,SSW,202,0.0,4.2,59,0.00,,,0.00,WUHU21636XXSP,2013-09-14 21:02:00,
2013-09-14 17:07:00,67.8,50.4,30.04,NW,315,8.7,16.1,54,0.00,,,0.00,WUHU21636XXSP,2013-09-14 21:07:00,
2013-09-14 17:12:00,67.1,50.5,30.05,West,270,2.6,16.3,56,0.00,,,0.00,WUHU21636XXSP,2013-09-14 21:12:00,
2013-09-14 17:17:00,67.3,50.9,30.05,WSW,247,1.5,16.3,56,0.00,,,0.00,WUHU21636XXSP,2013-09-14 21:17:00,
2013-09-14 17:22:00,68.0,51.1,30.05,WNW,292,4.2,6.2,55,0.00,,,0.00,WUHU21636XXSP,2013-09-14 21:22:00,
2013-09-14 17:27:00,67.8,50.9,30.04,West,270,2.4,15.2,55,0.00,,,0.00,WUHU21636XXSP,2013-09-14 21:27:00,
2013-09-14 17:32:00,67.8,50.9,30.04,WSW,247,2.2,15.2,55,0.00,,,0.00,WUHU21636XXSP,2013-09-14 21:32:00,
2013-09-14 17:37:00,67.5,50.5,30.04,NW,315,5.1,5.1,55,0.00,,,0.00,WUHU21636XXSP,2013-09-14 21:37:00,
2013-09-14 17:42:00,67.6,50.7,30.04,West,270,0.4,5.1,56,0.00,,,0.00,WUHU21636XXSP,2013-09-14 21:42:00,
2013-09-14 17:47:00,67.6,50.7,30.04,West,270,0.0,5.1,55,0.00,,,0.00,WUHU21636XXSP,2013-09-14 21:47:00,
2013-09-14 17:52:00,67.8,50.9,30.04,NNW,337,4.9,5.3,55,0.00,,,0.00,WUHU21636XXSP,2013-09-14 21:52:00,
2013-09-14 17:57:00,66.4,50.2,30.04,NW,315,0.0,5.3,56,0.00,,,0.00,WUHU21636XXSP,2013-09-14 21:57:00,
2013-09-14 18:02:00,65.5,49.6,30.04,West,270,1.7,4.9,57,0.00,,,0.00,WUHU21636XXSP,2013-09-14 22:02:00,
2013-09-14 18:07:00,64.2,48.9,30.04,NW,315,0.0,6.2,58,0.00,,,0.02,WUHU21636XXSP,2013-09-14 22:07:00,
2013-09-14 18:12:00,64.0,49.3,30.04,West,270,1.3,6.2,59,0.00,,,0.02,WUHU21636XXSP,2013-09-14 22:12:00,
2013-09-14 18:17:00,63.9,49.6,30.04,WSW,247,0.0,3.1,60,0.00,,,0.02,WUHU21636XXSP,2013-09-14 22:17:00,
2013-09-14 18:22:00,64.0,49.8,30.03,WSW,247,0.0,2.4,59,0.00,,,0.02,WUHU21636XXSP,2013-09-14 22:22:00,
2013-09-14 18:27:00,63.5,49.3,30.03,West,270,0.0,2.4,60,0.00,,,0.02,WUHU21636XXSP,2013-09-14 22:27:00,
2013-09-14 18:32:00,63.1,48.9,30.03,West,270,0.0,0.6,60,0.00,,,0.02,WUHU21636XXSP,2013-09-14 22:32:00,
2013-09-14 18:37:00,62.8,49.1,30.03,West,270,0.0,0.6,61,0.00,,,0.02,WUHU21636XXSP,2013-09-14 22:37:00,
2013-09-14 18:42:00,62.8,49.1,30.03,West,270,0.0,0.4,61,0.00,,,0.02,WUHU21636XXSP,2013-09-14 22:42:00,
2013-09-14 18:47:00,62.8,49.1,30.03,WNW,292,0.0,3.3,61,0.00,,,0.02,WUHU21636XXSP,2013-09-14 22:47:00,
2013-09-14 18:49:00,62.6,49.3,30.03,West,270,1.3,3.3,62,0.00,,,0.02,WUHU21636XXSP,2013-09-14 22:49:00,
2013-09-14 18:54:00,62.4,49.1,30.03,West,270,0.0,3.3,62,0.00,,,0.02,WUHU21636XXSP,2013-09-14 22:54:00,
2013-09-14 18:59:00,62.2,48.9,30.03,West,270,0.0,1.7,63,0.00,,,0.02,WUHU21636XXSP,2013-09-14 22:59:00,
2013-09-14 19:04:00,62.1,48.7,30.03,West,270,0.0,0.0,62,0.00,,,0.02,WUHU21636XXSP,2013-09-14 23:04:00,
2013-09-14 19:09:00,61.7,48.6,30.03,WNW,292,0.0,0.0,62,0.00,,,0.02,WUHU21636XXSP,2013-09-14 23:09:00,
2013-09-14 19:14:00,61.5,48.7,30.03,WNW,292,0.0,0.0,63,0.00,,,0.02,WUHU21636XXSP,2013-09-14 23:14:00,
2013-09-14 19:19:00,61.3,48.9,30.03,WNW,292,0.0,0.0,64,0.00,,,0.02,WUHU21636XXSP,2013-09-14 23:19:00,
2013-09-14 19:24:00,61.2,48.9,30.03,WNW,292,0.0,0.0,64,0.00,,,0.02,WUHU21636XXSP,2013-09-14 23:24:00,
2013-09-14 19:29:00,60.6,48.6,30.03,WNW,292,0.0,0.0,65,0.00,,,0.02,WUHU21636XXSP,2013-09-14 23:29:00,
2013-09-14 19:34:00,60.1,48.6,30.03,WNW,292,0.0,0.0,66,0.00,,,0.02,WUHU21636XXSP,2013-09-14 23:34:00,
2013-09-14 19:39:00,59.7,48.7,30.03,WNW,292,0.0,0.0,67,0.00,,,0.02,WUHU21636XXSP,2013-09-14 23:39:00,
2013-09-14 19:44:00,59.2,49.3,30.03,WNW,292,0.0,0.0,70,0.00,,,0.02,WUHU21636XXSP,2013-09-14 23:44:00,
2013-09-14 19:49:00,58.5,49.5,30.03,WNW,292,0.0,0.0,72,0.00,,,0.02,WUHU21636XXSP,2013-09-14 23:49:00,
2013-09-14 19:54:00,57.7,48.7,30.03,WNW,292,0.0,0.0,72,0.00,,,0.02,WUHU21636XXSP,2013-09-14 23:54:00,
2013-09-14 19:59:00,57.4,48.7,30.03,WNW,292,0.0,0.0,73,0.00,,,0.02,WUHU21636XXSP,2013-09-14 23:59:00,
2013-09-14 20:04:00,56.5,48.2,30.02,WNW,292,0.0,0.0,74,0.00,,,0.02,WUHU21636XXSP,2013-09-15 00:04:00,
2013-09-14 20:09:00,56.1,48.2,30.03,WNW,292,0.0,0.0,75,0.00,,,0.02,WUHU21636XXSP,2013-09-15 00:09:00,
2013-09-14 20:14:00,56.1,48.2,30.03,WNW,292,0.0,0.0,75,0.00,,,0.02,WUHU21636XXSP,2013-09-15 00:14:00,
2013-09-14 20:19:00,55.8,48.2,30.03,WNW,292,0.0,0.0,76,0.00,,,0.02,WUHU21636XXSP,2013-09-15 00:19:00,
2013-09-14 20:24:00,55.4,47.8,30.03,WNW,292,0.0,0.0,76,0.00,,,0.02,WUHU21636XXSP,2013-09-15 00:24:00,
2013-09-14 20:29:00,55.0,47.8,30.02,WNW,292,0.0,0.0,77,0.00,,,0.02,WUHU21636XXSP,2013-09-15 00:29:00,
2013-09-14 20:34:00,54.7,47.5,30.03,WNW,292,0.0,0.0,77,0.00,,,0.02,WUHU21636XXSP,2013-09-15 00:34:00,
2013-09-14 20:39:00,54.7,47.5,30.03,WNW,292,0.0,0.0,77,0.00,,,0.02,WUHU21636XXSP,2013-09-15 00:39:00,
2013-09-14 20:44:00,54.7,47.5,30.03,WNW,292,0.0,0.0,77,0.00,,,0.02,WUHU21636XXSP,2013-09-15 00:44:00,
2013-09-14 20:49:00,54.3,47.1,30.03,WNW,292,0.0,0.0,78,0.00,,,0.02,WUHU21636XXSP,2013-09-15 00:49:00,
2013-09-14 20:54:00,54.1,47.3,30.03,WNW,292,0.0,0.0,78,0.00,,,0.02,WUHU21636XXSP,2013-09-15 00:54:00,
2013-09-14 20:59:00,53.6,54.1,30.02,WNW,292,0.0,0.0,78,0.00,,,0.02,WUHU21636XXSP,2013-09-15 00:59:00,
2013-09-14 21:04:00,53.4,47.1,30.02,WNW,292,0.0,6.2,79,0.00,,,0.02,WUHU21636XXSP,2013-09-15 01:04:00,
2013-09-14 21:09:00,53.4,47.1,30.03,WNW,292,0.0,6.2,79,0.00,,,0.02,WUHU21636XXSP,2013-09-15 01:09:00,
2013-09-14 21:14:00,53.4,47.1,30.03,WNW,292,0.0,6.3,80,0.00,,,0.02,WUHU21636XXSP,2013-09-15 01:14:00,
2013-09-14 21:19:00,53.4,47.1,30.03,WNW,292,0.0,6.3,80,0.00,,,0.02,WUHU21636XXSP,2013-09-15 01:19:00,
2013-09-14 21:24:00,53.4,47.1,30.03,WNW,292,0.0,6.2,80,0.00,,,0.02,WUHU21636XXSP,2013-09-15 01:24:00,
2013-09-14 21:29:00,53.2,46.6,30.03,WNW,292,0.0,0.0,80,0.00,,,0.02,WUHU21636XXSP,2013-09-15 01:29:00,
2013-09-14 21:34:00,52.9,46.9,30.02,WNW,292,0.0,0.0,80,0.00,,,0.02,WUHU21636XXSP,2013-09-15 01:34:00,
2013-09-14 21:39:00,52.5,46.6,30.02,WNW,292,0.0,0.0,80,0.00,,,0.02,WUHU21636XXSP,2013-09-15 01:39:00,
2013-09-14 21:44:00,52.3,46.6,30.03,WNW,292,0.0,0.0,81,0.00,,,0.02,WUHU21636XXSP,2013-09-15 01:44:00,
2013-09-14 21:49:00,52.0,46.6,30.02,WNW,292,0.0,0.0,82,0.00,,,0.02,WUHU21636XXSP,2013-09-15 01:49:00,
2013-09-14 21:54:00,51.6,46.2,30.02,WNW,292,0.0,0.0,82,0.00,,,0.02,WUHU21636XXSP,2013-09-15 01:54:00,
2013-09-14 21:59:00,51.6,46.2,30.02,WNW,292,0.0,0.0,82,0.00,,,0.02,WUHU21636XXSP,2013-09-15 01:59:00,
2013-09-14 22:04:00,51.6,46.2,30.02,WNW,292,0.0,0.0,83,0.00,,,0.02,WUHU21636XXSP,2013-09-15 02:04:00,
2013-09-14 22:09:00,51.6,46.2,30.02,WNW,292,0.0,0.0,84,0.00,,,0.02,WUHU21636XXSP,2013-09-15 02:09:00,
2013-09-14 22:14:00,52.0,47.1,30.03,WNW,292,0.0,0.0,84,0.00,,,0.02,WUHU21636XXSP,2013-09-15 02:14:00,
2013-09-14 22:19:00,52.0,47.1,30.03,WNW,292,0.0,0.0,84,0.00,,,0.02,WUHU21636XXSP,2013-09-15 02:19:00,
2013-09-14 22:24:00,52.0,47.1,30.03,WNW,292,0.0,0.0,83,0.00,,,0.02,WUHU21636XXSP,2013-09-15 02:24:00,
2013-09-14 22:29:00,52.2,47.1,30.03,WNW,292,0.0,0.0,83,0.00,,,0.02,WUHU21636XXSP,2013-09-15 02:29:00,
2013-09-14 22:34:00,52.3,47.5,30.02,WNW,292,0.0,0.0,84,0.00,,,0.02,WUHU21636XXSP,2013-09-15 02:34:00,
2013-09-14 22:39:00,52.5,47.7,30.02,West,270,0.0,0.0,83,0.00,,,0.02,WUHU21636XXSP,2013-09-15 02:39:00,
2013-09-14 22:44:00,52.7,47.7,30.02,West,270,0.0,0.0,83,0.00,,,0.02,WUHU21636XXSP,2013-09-15 02:44:00,
2013-09-14 22:49:00,52.9,47.8,30.01,West,270,0.0,0.0,83,0.00,,,0.02,WUHU21636XXSP,2013-09-15 02:49:00,
2013-09-14 22:54:00,53.2,47.8,30.01,West,270,0.0,0.0,82,0.00,,,0.02,WUHU21636XXSP,2013-09-15 02:54:00,
2013-09-14 22:59:00,53.4,48.0,30.01,West,270,0.0,0.0,82,0.00,,,0.02,WUHU21636XXSP,2013-09-15 02:59:00,
2013-09-14 23:04:00,53.4,48.2,30.02,West,270,1.7,1.7,82,0.00,,,0.02,WUHU21636XXSP,2013-09-15 03:04:00,
2013-09-14 23:09:00,53.8,48.0,30.02,West,270,0.0,1.7,81,0.00,,,0.02,WUHU21636XXSP,2013-09-15 03:09:00,
2013-09-14 23:14:00,53.8,48.0,30.02,West,270,0.0,1.7,81,0.00,,,0.02,WUHU21636XXSP,2013-09-15 03:14:00,
2013-09-14 23:19:00,54.0,48.2,30.02,West,270,0.0,0.0,81,0.00,,,0.02,WUHU21636XXSP,2013-09-15 03:19:00,
2013-09-14 23:24:00,54.1,48.0,30.02,West,270,0.0,0.8,80,0.00,,,0.02,WUHU21636XXSP,2013-09-15 03:24:00,
2013-09-14 23:29:00,54.1,48.0,30.02,West,270,0.0,0.8,81,0.00,,,0.02,WUHU21636XXSP,2013-09-15 03:29:00,
2013-09-14 23:34:00,54.1,48.0,30.02,West,270,0.0,0.0,81,0.00,,,0.02,WUHU21636XXSP,2013-09-15 03:34:00,
2013-09-14 23:39:00,54.1,48.0,30.02,WSW,247,0.0,0.0,80,0.00,,,0.02,WUHU21636XXSP,2013-09-15 03:39:00,
2013-09-14 23:44:00,54.3,48.2,30.01,SW,225,0.0,0.0,80,0.00,,,0.02,WUHU21636XXSP,2013-09-15 03:44:00,
2013-09-14 23:49:00,54.7,48.2,30.01,WSW,247,0.0,0.4,79,0.00,,,0.02,WUHU21636XXSP,2013-09-15 03:49:00,
2013-09-14 23:54:00,54.7,48.2,30.01,South,180,0.0,3.5,79,0.00,,,0.02,WUHU21636XXSP,2013-09-15 03:54:00,
2013-09-14 23:59:00,55.0,48.6,30.02,South,180,0.0,3.5,79,0.00,,,0.02,WUHU21636XXSP,2013-09-15 03:59:00,